Latest Weather Observations for Archerfield

IDQ60801

Issued at 10:35 am EST Saturday 26 July 2014 (issued every 30 minutes, with the page automatically refreshed every 10 minutes)

About weather observations | Map of weather stations | Latest weather observations for QLD | Other Formats
Station Details ID: 040211 Name: ARCHERFIELD AIRPORT Lat: -27.57 Lon: 153.01 Height: 12.5 m
Data from the previous 72 hours. | See also: Recent months at Archerfield
Date/Time
EST
Temp
°C
App
Temp
°C
Dew
Point
Rel
Hum
%
Delta-T
°C
Wind Press
QNH
hPa
Press
MSL
hPa
Rain
since 9 am
mm
Dir
 
Spd
km/h
Gust
km/h
Spd
kts
Gust
kts
26/10:30am 18.1 18.4 14.4 79 2.1 SSE 6 7 3 4 1027.0 - 0.0
26/10:00am 17.4 18.9 14.7 84 1.5 SSE 0 0 0 0 1027.2 - 0.0
26/09:30am 16.3 16.9 14.3 88 1.1 SW 4 7 2 4 1027.7 - 0.0
26/09:00am 15.3 15.4 14.0 92 0.7 WSW 6 7 3 4 1027.7 1027.6 0.0
26/08:30am 14.0 15.0 13.2 95 0.4 CALM 0 2 0 1 1027.5 - 0.0
26/08:00am 12.8 12.8 12.3 97 0.3 S 4 7 2 4 1027.2 - 0.0
26/07:43am 12.1 12.6 11.6 97 0.3 CALM 0 0 0 0 1027.1 - 0.0
26/07:30am 11.6 11.6 11.0 96 0.3 SSW 2 6 1 3 1026.7 - 0.0
26/07:00am 12.0 11.1 11.5 97 0.3 SSE 7 9 4 5 1026.8 - 0.0
26/06:56am 11.9 11.0 11.4 97 0.3 SSE 7 9 4 5 1026.8 - 0.0
26/06:30am 10.7 9.6 9.9 95 0.4 SSE 6 7 3 4 1026.8 - 0.0
26/06:00am 11.0 10.0 10.4 96 0.3 SSE 6 6 3 3 1026.4 1026.3 0.0
26/05:30am 10.4 10.0 9.6 95 0.4 S 2 6 1 3 1026.2 - 0.0
26/05:00am 11.0 10.8 10.4 96 0.3 SSE 2 7 1 4 1026.0 - 0.0
26/04:30am 10.2 10.1 9.4 95 0.4 CALM 0 0 0 0 1026.0 - 0.0
26/04:00am 10.0 9.8 8.9 93 0.5 CALM 0 0 0 0 1025.6 - 0.0
26/03:30am 10.7 10.7 9.9 95 0.4 CALM 0 0 0 0 1025.5 - 0.0
26/03:00am 11.4 11.7 10.8 96 0.3 CALM 0 0 0 0 1025.7 1025.6 0.0
26/02:30am 10.5 9.7 9.7 95 0.4 S 4 7 2 4 1025.8 - 0.0
26/02:00am 10.1 8.2 9.0 93 0.5 S 9 9 5 5 1026.2 - 0.0
26/01:30am 11.4 10.3 10.5 94 0.5 S 7 9 4 5 1026.1 - 0.0
26/01:00am 12.1 11.2 11.2 94 0.5 S 7 9 4 5 1026.2 - 0.0
26/12:30am 12.7 11.2 11.9 95 0.4 S 11 15 6 8 1026.3 - 0.0
26/12:00am 13.0 11.6 12.2 95 0.4 S 11 13 6 7 1026.4 1026.3 0.0
 
Date/Time
EST
Temp
°C
App
Temp
°C
Dew
Point
Rel
Hum
%
Delta-T
°C
Wind Press
QNH
hPa
Press
MSL
hPa
Rain
since 9 am
mm
Dir
 
Spd
km/h
Gust
km/h
Spd
kts
Gust
kts
25/11:30pm 12.7 11.9 11.6 93 0.6 SSE 7 9 4 5 1026.5 - 0.0
25/11:00pm 13.4 14.0 12.0 91 0.8 CALM 0 0 0 0 1026.7 - 0.0
25/10:30pm 15.5 15.6 14.4 93 0.6 ENE 7 7 4 4 1026.8 - 0.0
25/10:00pm 15.7 16.7 14.4 92 0.7 NNE 2 7 1 4 1026.7 - 0.0
25/09:30pm 15.8 17.2 14.5 92 0.7 CALM 0 0 0 0 1026.9 - 0.0
25/09:00pm 15.7 15.8 13.9 89 1.0 N 6 7 3 4 1026.9 1026.8 0.0
25/08:30pm 15.8 16.1 13.5 86 1.3 NNE 4 7 2 4 1026.7 - 0.0
25/08:00pm 16.9 16.5 14.2 84 1.5 NE 9 13 5 7 1026.4 - 0.0
25/07:30pm 16.8 16.0 14.1 84 1.5 NE 11 13 6 7 1026.0 - 0.0
25/07:00pm 16.1 15.5 13.4 84 1.5 NNE 9 13 5 7 1025.8 - 0.0
25/06:30pm 16.6 15.6 13.3 81 1.8 NNE 11 15 6 8 1025.3 - 0.0
25/06:00pm 17.3 16.2 13.2 77 2.3 NNE 11 17 6 9 1025.0 1024.9 0.0
25/05:30pm 18.9 16.2 13.5 71 3.1 N 20 26 11 14 1024.6 - 0.0
25/05:00pm 19.8 16.3 13.3 66 3.7 N 24 28 13 15 1024.3 - 0.0
25/04:30pm 20.9 17.7 13.1 61 4.4 N 22 28 12 15 1023.9 - 0.0
25/04:00pm 21.6 18.4 13.0 58 4.9 N 22 32 12 17 1023.7 - 0.0
25/03:30pm 22.2 19.0 13.0 56 5.3 N 22 28 12 15 1023.7 - 0.0
25/03:00pm 22.9 19.3 13.1 54 5.6 NNE 24 32 13 17 1023.5 1023.4 0.0
25/02:30pm 23.4 20.0 12.4 50 6.3 NE 22 28 12 15 1023.5 - 0.0
25/02:00pm 23.3 20.0 11.0 46 6.8 N 19 26 10 14 1023.6 - 0.0
25/01:30pm 23.5 20.4 12.2 49 6.4 NNE 20 30 11 16 1023.9 - 0.0
25/01:00pm 23.1 20.4 11.8 49 6.4 N 17 26 9 14 1024.1 - 0.0
25/12:30pm 23.7 21.7 12.7 50 6.3 N 15 24 8 13 1024.5 - 0.0
25/12:00pm 22.5 20.9 12.7 54 5.6 N 13 22 7 12 1025.1 1025.0 0.0
25/11:30am 22.4 21.4 13.5 57 5.1 NNW 11 19 6 10 1025.8 - 0.0
25/11:00am 21.8 21.3 13.7 60 4.7 NNE 9 15 5 8 1026.1 - 0.0
25/10:30am 19.6 20.0 12.6 64 3.9 SE 2 7 1 4 1026.6 - 0.0
25/10:00am 18.8 18.4 12.3 66 3.6 S 6 11 3 6 1026.9 - 0.0
25/09:30am 16.9 16.1 11.8 72 2.8 SSW 7 11 4 6 1027.2 - 0.0
25/09:00am 15.0 14.4 11.8 81 1.7 SW 6 7 3 4 1027.2 1027.1 0.0
25/08:30am 13.2 12.4 10.9 86 1.2 S 6 9 3 5 1027.1 - 0.0
25/08:00am 11.4 11.5 10.0 91 0.7 CALM 0 0 0 0 1026.9 - 0.0
25/07:30am 10.0 9.9 9.4 96 0.3 CALM 0 0 0 0 1026.7 - 0.0
25/07:00am 6.9 5.9 5.8 93 0.5 CALM 0 0 0 0 1026.3 - 0.0
25/06:30am 6.8 4.5 5.7 93 0.5 S 7 7 4 4 1026.0 - 0.0
25/06:00am 7.5 6.3 6.4 93 0.5 S 2 6 1 3 1025.7 1025.6 0.0
25/05:30am 7.3 6.5 6.6 95 0.3 CALM 0 0 0 0 1025.4 - 0.0
25/05:00am 7.7 7.0 7.0 95 0.3 CALM 0 0 0 0 1025.0 - 0.0
25/04:30am 6.8 5.8 5.6 92 0.5 CALM 0 0 0 0 1024.8 - 0.0
25/04:00am 8.3 7.0 7.5 95 0.4 S 4 9 2 5 1024.7 - 0.0
25/03:30am 8.4 6.1 7.5 94 0.4 S 9 11 5 6 1024.7 - 0.0
25/03:00am 8.9 8.1 8.1 95 0.4 SSE 2 7 1 4 1024.8 1024.7 0.0
25/02:30am 8.6 8.0 7.5 93 0.5 CALM 0 0 0 0 1024.7 - 0.0
25/02:00am 9.9 8.4 9.1 95 0.4 S 7 9 4 5 1024.6 - 0.0
25/01:30am 8.5 7.9 7.4 93 0.5 CALM 0 0 0 0 1024.6 - 0.0
25/01:00am 8.5 7.9 7.3 92 0.6 CALM 0 0 0 0 1024.6 - 0.0
25/12:30am 9.4 7.6 7.8 90 0.8 S 7 9 4 5 1024.6 - 0.0
25/12:00am 10.2 8.2 8.6 90 0.8 S 9 13 5 7 1024.5 1024.4 0.0
 
Date/Time
EST
Temp
°C
App
Temp
°C
Dew
Point
Rel
Hum
%
Delta-T
°C
Wind Press
QNH
hPa
Press
MSL
hPa
Rain
since 9 am
mm
Dir
 
Spd
km/h
Gust
km/h
Spd
kts
Gust
kts
24/11:30pm 11.0 8.9 9.8 92 0.6 S 11 13 6 7 1024.5 - 0.0
24/11:00pm 11.1 9.3 9.5 90 0.8 S 9 11 5 6 1024.5 - 0.0
24/10:30pm 10.8 8.9 9.1 89 0.8 S 9 11 5 6 1024.6 - 0.0
24/10:00pm 11.6 11.6 9.7 88 1.0 CALM 0 0 0 0 1024.7 - 0.0
24/09:30pm 12.5 12.6 10.2 86 1.2 CALM 0 0 0 0 1024.6 - 0.0
24/09:00pm 13.2 13.5 10.9 86 1.2 CALM 0 0 0 0 1024.4 1024.3 0.0
24/08:30pm 12.5 12.7 10.6 88 1.0 CALM 0 0 0 0 1024.2 - 0.0
24/08:00pm 13.6 13.9 10.8 83 1.5 CALM 0 0 0 0 1023.9 - 0.0
24/07:30pm 13.3 11.9 8.8 74 2.3 SE 6 7 3 4 1023.6 - 0.0
24/07:00pm 16.2 15.6 11.8 75 2.4 E 6 7 3 4 1023.3 - 0.0
24/06:30pm 16.6 15.9 11.9 74 2.6 NE 7 7 4 4 1022.8 - 0.0
24/06:00pm 15.8 14.4 10.8 72 2.6 NE 9 13 5 7 1022.3 1022.2 0.0
24/05:30pm 17.4 14.9 11.0 66 3.4 NNE 15 19 8 10 1022.0 - 0.0
24/05:00pm 18.7 16.0 10.5 59 4.4 NE 15 20 8 11 1021.9 - 0.0
24/04:30pm 20.0 16.6 10.4 54 5.2 NE 19 22 10 12 1021.6 - 0.0
24/04:00pm 20.9 17.3 10.4 51 5.7 NE 20 26 11 14 1021.2 - 0.0
24/03:30pm 21.5 18.3 10.0 48 6.2 NE 17 24 9 13 1021.0 - 0.0
24/03:00pm 21.9 19.0 11.0 50 6.0 ENE 17 24 9 13 1021.1 1021.0 0.0
24/02:30pm 20.7 18.5 10.8 53 5.4 NNE 13 20 7 11 1021.1 - 0.0
24/02:00pm 22.0 19.4 10.8 49 6.2 NE 15 20 8 11 1021.0 - 0.0
24/01:30pm 22.3 19.8 9.8 45 6.8 NNE 13 22 7 12 1021.2 - 0.0
24/01:00pm 21.6 19.2 10.1 48 6.2 E 13 22 7 12 1021.4 - 0.0
24/12:30pm 21.3 20.3 11.1 52 5.6 E 7 15 4 8 1021.8 - 0.0
24/12:00pm 20.6 18.8 10.7 53 5.4 NNE 11 17 6 9 1022.3 1022.2 0.0
24/11:30am 20.6 19.1 10.7 53 5.4 NE 9 19 5 10 1022.8 - 0.0
24/11:00am 21.1 20.4 11.4 54 5.4 SSE 6 17 3 9 1023.1 - 0.0
24/10:30am 19.9 19.1 11.1 57 4.8 ESE 6 13 3 7 1023.6 - 0.0
24/10:00am 18.0 16.5 10.6 62 4.0 S 9 13 5 7 1023.8 - 0.0
24/09:30am 16.9 15.8 10.7 67 3.3 S 7 11 4 6 1023.3 - 0.0
24/09:00am 15.1 13.8 10.1 72 2.6 S 7 11 4 6 1023.3 1023.2 0.0
24/08:30am 13.2 12.1 9.8 80 1.7 S 6 7 3 4 1023.2 - 0.0
24/08:00am 11.9 11.1 9.8 87 1.1 S 4 6 2 3 1023.0 - 0.0
24/07:30am 11.0 9.7 9.8 92 0.6 SSW 7 7 4 4 1023.2 - 0.0
24/07:00am 9.9 8.5 9.0 94 0.4 SSW 6 9 3 5 1023.1 - 0.0
24/06:30am 9.6 8.0 8.7 94 0.4 S 7 9 4 5 1022.5 - 0.0
24/06:00am 9.1 8.7 8.3 95 0.4 CALM 0 9 0 5 1022.5 1022.4 0.0
24/05:30am 9.6 9.3 8.7 94 0.4 CALM 0 0 0 0 1022.0 - 0.0
24/05:00am 8.8 8.1 6.9 88 0.9 CALM 0 0 0 0 1021.7 - 0.0
24/04:30am 10.3 9.3 8.7 90 0.8 S 4 6 2 3 1021.6 - 0.0
24/04:00am 10.7 9.2 9.0 89 0.8 S 7 9 4 5 1021.4 - 0.0
24/03:30am 11.7 10.6 10.1 90 0.8 SE 6 6 3 3 1021.3 - 0.0
24/03:00am 11.5 10.2 9.9 90 0.8 SW 7 9 4 5 1022.0 1021.9 0.0
24/02:30am 11.7 11.8 10.1 90 0.8 CALM 0 0 0 0 1021.8 - 0.0
24/02:00am 11.2 11.2 9.8 91 0.7 CALM 0 0 0 0 1021.7 - 0.0
24/01:30am 11.6 11.7 10.0 90 0.8 CALM 0 0 0 0 1021.9 - 0.0
24/01:00am 11.7 10.6 10.1 90 0.8 S 6 7 3 4 1021.9 - 0.0
24/12:30am 11.2 10.0 9.6 90 0.8 S 6 7 3 4 1022.3 - 0.0
24/12:00am 11.4 10.7 10.0 91 0.7 S 4 6 2 3 1022.3 1022.2 0.0
 
Date/Time
EST
Temp
°C
App
Temp
°C
Dew
Point
Rel
Hum
%
Delta-T
°C
Wind Press
QNH
hPa
Press
MSL
hPa
Rain
since 9 am
mm
Dir
 
Spd
km/h
Gust
km/h
Spd
kts
Gust
kts
23/11:30pm 11.0 9.7 9.8 92 0.6 SSW 7 7 4 4 1022.5 - 0.0
23/11:00pm 10.7 9.2 8.6 87 1.0 S 6 7 3 4 1022.5 - 0.0
23/10:30pm 12.2 11.6 10.3 88 1.0 W 4 6 2 3 1022.5 - 0.0
23/10:00pm 12.4 12.2 10.5 88 1.0 W 2 6 1 3 1022.4 - 0.0
23/09:30pm 12.4 11.1 9.8 84 1.3 SW 7 7 4 4 1022.3 - 0.0
23/09:00pm 14.5 13.6 10.7 78 2.0 SE 6 9 3 5 1022.2 1022.1 0.0
23/08:30pm 14.9 12.7 10.9 77 2.1 ESE 13 19 7 10 1022.0 - 0.0
23/08:00pm 15.4 13.3 11.2 76 2.2 ESE 13 17 7 9 1021.7 - 0.0
23/07:30pm 15.4 13.2 10.8 74 2.4 ESE 13 19 7 10 1021.7 - 0.0
23/07:00pm 16.1 13.6 11.1 72 2.7 E 15 19 8 10 1021.4 - 0.0
23/06:30pm 16.2 14.0 10.9 71 2.8 E 13 19 7 10 1021.3 - 0.0
23/06:00pm 16.7 14.5 10.8 68 3.1 E 13 17 7 9 1021.2 1021.1 0.0
23/05:30pm 17.2 14.1 10.3 64 3.7 E 17 20 9 11 1020.8 - 0.0
23/05:00pm 18.0 14.4 10.6 62 4.0 E 20 26 11 14 1020.6 - 0.0
23/04:30pm 18.6 15.1 10.2 58 4.5 ENE 19 22 10 12 1020.3 - 0.0
23/04:00pm 19.6 16.3 9.5 52 5.4 ENE 17 22 9 12 1020.3 - 0.0
23/03:30pm 21.2 18.0 10.1 49 6.0 NE 17 20 9 11 1020.2 - 0.0
23/03:00pm 22.5 21.2 7.5 38 7.8 W 4 9 2 5 1020.1 1020.0 0.0
23/02:30pm 21.2 18.9 7.4 41 7.1 SW 9 11 5 6 1020.0 - 0.0
23/02:00pm 21.2 19.2 8.5 44 6.7 WSW 9 17 5 9 1020.1 - 0.0
23/01:30pm 21.1 19.1 8.7 45 6.5 E 9 19 5 10 1020.2 - 0.0
23/01:00pm 20.2 17.5 8.8 48 6.0 SSE 13 19 7 10 1020.4 - 0.0
23/12:30pm 20.5 18.6 9.1 48 6.0 S 9 19 5 10 1020.8 - 0.0
23/12:00pm 20.3 17.6 8.9 48 6.0 SE 13 22 7 12 1021.6 1021.5 0.0
23/11:30am 19.2 16.5 9.1 52 5.3 S 13 20 7 11 1022.2 - 0.0
23/11:00am 18.3 16.2 9.9 58 4.5 S 11 17 6 9 1022.7 - 0.0

Other Formats:

Comma delimited format used in spreadsheet applications
http://www.bom.gov.au/fwo/IDQ60801/IDQ60801.94575.axf

JavaScript Object Notation format (JSON) in row-major order
http://www.bom.gov.au/fwo/IDQ60801/IDQ60801.94575.json